Time;durP1;ratioP1;P1;durP2;ratioP2;P2;SDS_P1;SDS_P2;PMS_P1;PMS_P2;Temp;Humidity;BMP_temperature;BMP_pressure;BME280_temperature;BME280_humidity;BME280_pressure;Samples;Min_cycle;Max_cycle;Signal;HPM_P1;HPM_P2
2022/09/05 00:02:16;;;;;;;12.48;2.40;;;;;;;;;;5325912;28;20026;-70
2022/09/05 00:04:48;;;;;;;7.15;1.88;;;;;;;;;;5324330;28;20125;-70
2022/09/05 00:07:38;;;;;;;8.27;2.20;;;;;;;;;;5325870;28;20028;-70
2022/09/05 00:10:28;;;;;;;9.07;2.10;;;;;;;;;;5324421;28;20066;-70
2022/09/05 00:13:00;;;;;;;8.63;1.90;;;;;;;;;;5325627;27;20055;-70
2022/09/05 00:15:32;;;;;;;8.23;2.17;;;;;;;;;;5324856;28;20026;-70
2022/09/05 00:18:12;;;;;;;6.85;1.98;;;;;;;;;;5324747;28;20016;-70
2022/09/05 00:20:46;;;;;;;12.75;2.08;;;;;;;;;;5324951;28;20059;-70
2022/09/05 00:23:28;;;;;;;9.65;2.00;;;;;;;;;;5325334;28;20437;-70
2022/09/05 00:26:18;;;;;;;16.50;1.98;;;;;;;;;;5324844;28;20081;-70
2022/09/05 00:29:16;;;;;;;9.80;1.85;;;;;;;;;;5324778;28;20026;-70
2022/09/05 00:32:07;;;;;;;9.63;1.37;;;;;;;;;;5323850;28;20427;-70
2022/09/05 00:35:01;;;;;;;10.93;3.22;;;;;;;;;;5324538;28;20431;-70
2022/09/05 00:37:34;;;;;;;13.73;2.00;;;;;;;;;;5324548;28;20076;-70
2022/09/05 00:40:10;;;;;;;8.20;1.50;;;;;;;;;;5324091;28;20029;-70
2022/09/05 00:42:43;;;;;;;10.25;1.75;;;;;;;;;;5324459;28;20609;-70
2022/09/05 00:45:28;;;;;;;8.30;2.22;;;;;;;;;;5324175;28;20039;-69
2022/09/05 00:48:12;;;;;;;6.57;1.88;;;;;;;;;;5324930;28;20100;-70
2022/09/05 00:50:58;;;;;;;10.80;1.90;;;;;;;;;;5324324;28;20407;-70
2022/09/05 00:53:43;;;;;;;13.95;2.38;;;;;;;;;;5323399;28;20058;-71
2022/09/05 00:56:33;;;;;;;15.40;1.65;;;;;;;;;;5324865;28;20023;-70
2022/09/05 00:59:22;;;;;;;13.82;1.70;;;;;;;;;;5324068;28;20565;-70
2022/09/05 01:02:05;;;;;;;11.13;2.47;;;;;;;;;;5324075;28;20022;-70
2022/09/05 01:04:56;;;;;;;12.30;1.95;;;;;;;;;;5323887;28;20045;-70
2022/09/05 01:07:46;;;;;;;15.45;2.40;;;;;;;;;;5323280;28;20019;-70
2022/09/05 01:10:38;;;;;;;13.98;2.35;;;;;;;;;;5324536;28;20023;-70
2022/09/05 01:13:28;;;;;;;10.45;1.95;;;;;;;;;;5323561;28;20030;-71
2022/09/05 01:16:05;;;;;;;13.48;1.90;;;;;;;;;;5324316;28;20024;-70
2022/09/05 01:19:04;;;;;;;14.70;3.67;;;;;;;;;;5323854;28;20536;-70
2022/09/05 01:21:35;;;;;;;;;;;;;;;;;;5320478;28;20066;-70
2022/09/05 01:24:06;;;;;;;10.25;2.60;;;;;;;;;;5324098;28;19969;-70
2022/09/05 01:27:16;;;;;;;10.18;2.10;;;;;;;;;;5323741;28;20012;-71
2022/09/05 01:29:55;;;;;;;13.68;2.58;;;;;;;;;;5278664;28;20509;-71
2022/09/05 01:32:36;;;;;;;10.70;2.00;;;;;;;;;;5279037;28;20031;-71
2022/09/05 01:35:26;;;;;;;7.28;2.40;;;;;;;;;;5308586;28;20036;-70
2022/09/05 01:38:05;;;;;;;6.70;2.30;;;;;;;;;;5323836;28;20015;-70
2022/09/05 01:40:45;;;;;;;15.23;3.00;;;;;;;;;;5323319;28;20041;-70
2022/09/05 01:43:25;;;;;;;9.45;3.40;;;;;;;;;;5322896;28;20044;-70
2022/09/05 01:46:02;;;;;;;12.63;2.80;;;;;;;;;;5323875;28;20451;-71
2022/09/05 01:48:42;;;;;;;9.93;3.38;;;;;;;;;;5322464;28;20034;-71
2022/09/05 01:51:33;;;;;;;9.80;3.00;;;;;;;;;;5323873;28;20097;-71
2022/09/05 01:54:23;;;;;;;6.07;2.75;;;;;;;;;;5323886;28;20091;-71
2022/09/05 01:57:06;;;;;;;13.15;3.53;;;;;;;;;;5322522;28;20023;-71
2022/09/05 01:59:40;;;;;;;10.05;3.33;;;;;;;;;;5323298;28;20019;-71
2022/09/05 02:02:15;;;;;;;7.53;3.13;;;;;;;;;;5322923;28;20028;-71
2022/09/05 02:04:46;;;;;;;9.27;2.63;;;;;;;;;;5322871;28;20027;-71
2022/09/05 02:07:45;;;;;;;6.63;3.10;;;;;;;;;;5323527;28;20458;-71
2022/09/05 02:10:38;;;;;;;6.50;3.35;;;;;;;;;;5322716;28;20071;-70
2022/09/05 02:13:28;;;;;;;10.70;3.33;;;;;;;;;;5323664;28;20018;-70
2022/09/05 02:16:11;;;;;;;8.35;3.30;;;;;;;;;;5323549;28;20038;-70
2022/09/05 02:18:46;;;;;;;8.73;3.45;;;;;;;;;;5323100;28;20038;-71
2022/09/05 02:21:22;;;;;;;10.60;3.40;;;;;;;;;;5323552;28;20019;-70
2022/09/05 02:24:12;;;;;;;10.52;3.78;;;;;;;;;;5321965;28;20027;-70
2022/09/05 02:26:51;;;;;;;6.28;3.15;;;;;;;;;;5322870;28;20321;-70
2022/09/05 02:29:37;;;;;;;9.75;3.40;;;;;;;;;;5323397;28;20019;-70
2022/09/05 02:32:12;;;;;;;8.43;3.53;;;;;;;;;;5322792;28;20016;-71
2022/09/05 02:34:55;;;;;;;7.65;2.95;;;;;;;;;;5327444;28;20020;-71
2022/09/05 02:37:38;;;;;;;8.25;3.65;;;;;;;;;;5326407;28;20024;-71
2022/09/05 02:40:15;;;;;;;7.88;3.40;;;;;;;;;;5327743;28;20322;-70
2022/09/05 02:42:46;;;;;;;8.32;3.45;;;;;;;;;;5326716;28;20046;-71
2022/09/05 02:45:21;;;;;;;9.67;3.40;;;;;;;;;;5326506;28;20110;-70
2022/09/05 02:48:12;;;;;;;6.32;3.92;;;;;;;;;;5326919;28;20274;-70
2022/09/05 02:50:51;;;;;;;6.75;3.17;;;;;;;;;;5326705;28;20102;-70
2022/09/05 02:53:24;;;;;;;11.73;3.85;;;;;;;;;;5326418;28;20060;-70
2022/09/05 02:56:11;;;;;;;7.88;3.60;;;;;;;;;;5326869;28;20104;-71
2022/09/05 02:58:52;;;;;;;7.00;3.80;;;;;;;;;;5325873;28;20031;-70
2022/09/05 03:01:33;;;;;;;10.00;3.35;;;;;;;;;;5326814;28;20019;-71
2022/09/05 03:04:23;;;;;;;7.32;3.50;;;;;;;;;;5326887;28;20032;-71
2022/09/05 03:06:54;;;;;;;5.00;3.15;;;;;;;;;;5325922;28;20069;-71
2022/09/05 03:09:44;;;;;;;8.77;3.58;;;;;;;;;;5326848;28;20474;-70
2022/09/05 03:12:48;;;;;;;7.07;3.88;;;;;;;;;;5326713;28;20034;-71
2022/09/05 03:15:32;;;;;;;9.20;3.72;;;;;;;;;;5303288;28;20063;-70
2022/09/05 03:18:15;;;;;;;10.00;4.35;;;;;;;;;;5326858;28;20020;-71
2022/09/05 03:21:11;;;;;;;7.35;3.50;;;;;;;;;;5325653;28;20028;-71
2022/09/05 03:24:00;;;;;;;10.52;3.70;;;;;;;;;;5326108;28;20466;-70
2022/09/05 03:26:49;;;;;;;6.93;3.58;;;;;;;;;;5325221;28;20022;-71
2022/09/05 03:29:43;;;;;;;7.90;3.85;;;;;;;;;;5326573;28;20106;-70
2022/09/05 03:32:26;;;;;;;7.55;3.97;;;;;;;;;;5326643;28;20069;-71
2022/09/05 03:35:09;;;;;;;6.65;3.38;;;;;;;;;;5325757;28;20023;-70
2022/09/05 03:38:12;;;;;;;5.95;3.00;;;;;;;;;;5325953;28;20020;-70
2022/09/05 03:40:44;;;;;;;6.97;3.72;;;;;;;;;;5301310;28;20092;-71
2022/09/05 03:43:34;;;;;;;7.50;3.47;;;;;;;;;;5325945;28;20398;-70
2022/09/05 03:46:17;;;;;;;6.75;3.17;;;;;;;;;;5325699;28;20393;-70
2022/09/05 03:48:52;;;;;;;6.88;3.45;;;;;;;;;;5324850;28;20045;-70
2022/09/05 03:51:41;;;;;;;7.13;3.55;;;;;;;;;;5326477;28;20047;-70
2022/09/05 03:54:12;;;;;;;7.68;3.80;;;;;;;;;;5326295;27;20123;-70
2022/09/05 03:56:59;;;;;;;7.90;3.30;;;;;;;;;;5324781;28;20473;-70
2022/09/05 03:59:56;;;;;;;6.20;3.28;;;;;;;;;;5325391;28;20620;-71
2022/09/05 04:02:29;;;;;;;5.25;3.22;;;;;;;;;;5324389;28;20024;-70
2022/09/05 04:05:26;;;;;;;5.30;3.60;;;;;;;;;;5325806;28;20034;-70
2022/09/05 04:08:04;;;;;;;9.57;3.33;;;;;;;;;;5323420;28;20043;-69
2022/09/05 04:10:44;;;;;;;5.97;3.00;;;;;;;;;;5324247;28;20386;-70
2022/09/05 04:13:18;;;;;;;7.70;3.13;;;;;;;;;;5325719;28;20102;-70
2022/09/05 04:15:59;;;;;;;7.05;3.88;;;;;;;;;;5324356;28;20015;-69
2022/09/05 04:18:36;;;;;;;6.97;3.38;;;;;;;;;;5325171;28;20459;-70
2022/09/05 04:21:19;;;;;;;8.27;3.75;;;;;;;;;;5325734;28;20117;-70
2022/09/05 04:23:59;;;;;;;7.97;3.55;;;;;;;;;;5324328;28;20064;-70
2022/09/05 04:26:49;;;;;;;7.00;4.53;;;;;;;;;;5324822;28;20035;-70
2022/09/05 04:29:23;;;;;;;6.20;3.72;;;;;;;;;;5325275;28;20408;-70
2022/09/05 04:31:57;;;;;;;12.57;3.97;;;;;;;;;;5324300;28;20034;-70
2022/09/05 04:34:46;;;;;;;8.32;4.05;;;;;;;;;;5324651;28;20099;-69
2022/09/05 04:37:36;;;;;;;7.65;3.85;;;;;;;;;;5324329;28;20028;-69
2022/09/05 04:40:26;;;;;;;10.02;3.97;;;;;;;;;;5325039;27;20019;-69
2022/09/05 04:43:00;;;;;;;6.68;3.80;;;;;;;;;;5324878;28;20086;-69
2022/09/05 04:45:35;;;;;;;10.15;4.28;;;;;;;;;;5323293;28;20023;-70
2022/09/05 04:48:08;;;;;;;8.30;4.18;;;;;;;;;;5324818;28;20447;-70
2022/09/05 04:50:54;;;;;;;11.32;4.05;;;;;;;;;;5324365;28;20023;-70
2022/09/05 04:53:44;;;;;;;7.65;3.40;;;;;;;;;;5324340;28;20026;-70
2022/09/05 04:56:21;;;;;;;6.97;3.47;;;;;;;;;;5324309;28;20119;-69
2022/09/05 04:58:57;;;;;;;10.93;4.38;;;;;;;;;;5322987;28;20027;-69
2022/09/05 05:01:31;;;;;;;8.23;4.28;;;;;;;;;;5323905;28;20031;-70
2022/09/05 05:04:04;;;;;;;5.47;3.67;;;;;;;;;;5324396;28;20031;-70
2022/09/05 05:06:45;;;;;;;10.13;4.47;;;;;;;;;;5323294;28;20493;-70
2022/09/05 05:09:20;;;;;;;5.90;3.88;;;;;;;;;;5324664;28;20034;-70
2022/09/05 05:11:56;;;;;;;6.43;4.22;;;;;;;;;;5324038;28;20023;-70
2022/09/05 05:14:29;;;;;;;10.07;4.07;;;;;;;;;;5323562;28;20016;-70
2022/09/05 05:17:15;;;;;;;8.70;4.47;;;;;;;;;;5324215;28;20028;-69
2022/09/05 05:19:49;;;;;;;6.78;4.10;;;;;;;;;;5323087;28;20026;-70
2022/09/05 05:22:21;;;;;;;8.00;4.70;;;;;;;;;;5324114;28;20095;-71
2022/09/05 05:24:54;;;;;;;7.55;4.82;;;;;;;;;;5323644;28;20110;-73
2022/09/05 05:27:43;;;;;;;9.20;4.15;;;;;;;;;;5322787;28;20081;-70
2022/09/05 05:30:22;;;;;;;8.85;4.65;;;;;;;;;;5324317;28;20363;-69
2022/09/05 05:32:54;;;;;;;8.55;4.50;;;;;;;;;;5323749;28;20103;-70
2022/09/05 05:35:28;;;;;;;7.47;4.40;;;;;;;;;;5322574;28;20094;-70
2022/09/05 05:38:18;;;;;;;9.48;3.92;;;;;;;;;;5323906;28;20382;-70
2022/09/05 05:40:53;;;;;;;12.35;4.63;;;;;;;;;;5322776;28;20471;-70
2022/09/05 05:43:32;;;;;;;8.43;4.57;;;;;;;;;;5323034;28;20051;-69
2022/09/05 05:46:03;;;;;;;9.10;4.35;;;;;;;;;;5323831;28;20418;-70
2022/09/05 05:48:36;;;;;;;5.68;3.97;;;;;;;;;;5322396;28;20023;-69
2022/09/05 05:51:20;;;;;;;5.80;4.38;;;;;;;;;;5323464;28;20020;-69
2022/09/05 05:53:59;;;;;;;5.07;4.22;;;;;;;;;;5322937;28;20019;-69
2022/09/05 05:56:38;;;;;;;7.50;5.57;;;;;;;;;;5322648;28;20067;-68
2022/09/05 05:59:26;;;;;;;10.10;5.65;;;;;;;;;;5323714;28;20020;-70
2022/09/05 06:01:57;;;;;;;14.75;5.75;;;;;;;;;;5322884;28;20012;-69
2022/09/05 06:04:37;;;;;;;7.15;4.47;;;;;;;;;;5323059;28;20073;-70
2022/09/05 06:07:27;;;;;;;7.18;4.50;;;;;;;;;;5323098;28;20034;-69
2022/09/05 06:10:01;;;;;;;4.90;3.78;;;;;;;;;;5322975;28;20535;-69
2022/09/05 06:12:51;;;;;;;7.10;5.00;;;;;;;;;;5323152;28;20011;-70
2022/09/05 06:15:40;;;;;;;15.18;5.45;;;;;;;;;;5322722;28;20012;-69
2022/09/05 06:18:30;;;;;;;8.90;5.30;;;;;;;;;;5323808;28;20489;-69
2022/09/05 06:21:14;;;;;;;12.60;5.22;;;;;;;;;;5323575;28;20036;-69
2022/09/05 06:23:55;;;;;;;8.45;4.82;;;;;;;;;;5322093;28;20440;-70
2022/09/05 06:26:50;;;;;;;9.65;4.95;;;;;;;;;;5323350;28;20019;-69
2022/09/05 06:29:21;;;;;;;9.32;5.10;;;;;;;;;;5322679;28;20368;-68
2022/09/05 06:31:58;;;;;;;9.03;5.93;;;;;;;;;;5322825;28;20096;-68
2022/09/05 06:34:51;;;;;;;10.90;5.10;;;;;;;;;;5322721;28;20276;-68
2022/09/05 06:37:40;;;;;;;10.65;5.70;;;;;;;;;;5322576;28;20026;-68
2022/09/05 06:40:24;;;;;;;10.07;5.45;;;;;;;;;;5323288;28;20024;-68
2022/09/05 06:43:04;;;;;;;8.05;5.28;;;;;;;;;;5322864;28;20149;-72
2022/09/05 06:45:53;;;;;;;8.93;5.40;;;;;;;;;;5321940;28;20389;-71
2022/09/05 06:48:31;;;;;;;9.60;5.68;;;;;;;;;;5322722;28;20102;-68
2022/09/05 06:51:02;;;;;;;10.40;4.90;;;;;;;;;;5320820;28;20355;-68
2022/09/05 06:53:39;;;;;;;9.45;5.70;;;;;;;;;;5322691;28;20031;-69
2022/09/05 06:56:13;;;;;;;7.95;5.22;;;;;;;;;;5322891;28;20129;-69
2022/09/05 06:58:56;;;;;;;10.02;5.07;;;;;;;;;;5321407;28;20177;-68
2022/09/05 07:01:30;;;;;;;5.82;4.30;;;;;;;;;;5322321;28;20039;-68
2022/09/05 07:04:13;;;;;;;9.13;4.03;;;;;;;;;;5322571;28;20031;-68
2022/09/05 07:06:45;;;;;;;14.18;4.30;;;;;;;;;;5321211;28;20024;-68
2022/09/05 07:09:25;;;;;;;8.00;3.85;;;;;;;;;;5322651;28;20084;-67
2022/09/05 07:12:02;;;;;;;4.78;3.90;;;;;;;;;;5322239;28;20381;-68
2022/09/05 07:14:36;;;;;;;7.25;3.78;;;;;;;;;;5322517;28;20047;-69
2022/09/05 07:17:15;;;;;;;9.50;3.22;;;;;;;;;;5322969;28;20016;-68
2022/09/05 07:19:55;;;;;;;5.10;3.55;;;;;;;;;;5322739;28;20016;-68
2022/09/05 07:22:31;;;;;;;12.68;3.85;;;;;;;;;;5326685;27;20046;-68
2022/09/05 07:25:09;;;;;;;10.60;3.22;;;;;;;;;;5326734;28;20438;-68
2022/09/05 07:27:49;;;;;;;10.65;3.22;;;;;;;;;;5325421;27;20086;-68
2022/09/05 07:30:20;;;;;;;7.97;2.58;;;;;;;;;;5326750;27;20047;-68
2022/09/05 07:32:53;;;;;;;13.10;2.90;;;;;;;;;;5325535;28;20024;-67
2022/09/05 07:35:29;;;;;;;10.63;2.70;;;;;;;;;;5325881;28;20020;-69
2022/09/05 07:38:12;;;;;;;6.07;1.70;;;;;;;;;;5326441;28;20027;-68
2022/09/05 07:40:56;;;;;;;7.10;2.05;;;;;;;;;;5325048;27;20133;-68
2022/09/05 07:43:32;;;;;;;5.95;1.08;;;;;;;;;;5325673;28;20531;-68
2022/09/05 07:46:11;;;;;;;6.70;1.00;;;;;;;;;;5326364;28;20032;-68
2022/09/05 07:48:49;;;;;;;3.05;0.90;;;;;;;;;;5324917;28;20366;-69
2022/09/05 07:51:23;;;;;;;4.22;0.70;;;;;;;;;;5326219;28;20118;-68
2022/09/05 07:54:00;;;;;;;3.40;0.88;;;;;;;;;;5325113;28;20431;-67
2022/09/05 07:56:41;;;;;;;3.80;1.48;;;;;;;;;;5325489;28;20023;-68
2022/09/05 07:59:14;;;;;;;3.33;0.60;;;;;;;;;;5326316;28;20019;-68
2022/09/05 08:01:46;;;;;;;20.55;0.90;;;;;;;;;;5324501;28;20088;-68
2022/09/05 08:04:20;;;;;;;4.22;0.77;;;;;;;;;;5326230;28;20466;-68
2022/09/05 08:06:52;;;;;;;3.90;0.70;;;;;;;;;;5325374;28;20024;-68
2022/09/05 08:09:29;;;;;;;6.18;1.60;;;;;;;;;;5325089;28;20047;-67
2022/09/05 08:12:04;;;;;;;5.80;0.70;;;;;;;;;;5325868;28;20046;-68
2022/09/05 08:14:42;;;;;;;4.47;0.82;;;;;;;;;;5325070;28;20030;-68
2022/09/05 08:17:17;;;;;;;6.43;1.00;;;;;;;;;;5325061;28;20036;-68
2022/09/05 08:19:54;;;;;;;2.78;0.60;;;;;;;;;;5324873;28;20008;-69
2022/09/05 08:22:28;;;;;;;3.45;0.70;;;;;;;;;;5324225;27;20049;-67
2022/09/05 08:25:02;;;;;;;3.55;0.60;;;;;;;;;;5325589;28;20039;-68
2022/09/05 08:27:53;;;;;;;1.38;0.60;;;;;;;;;;5325056;28;20020;-68
2022/09/05 08:30:24;;;;;;;3.95;0.80;;;;;;;;;;5323773;28;20028;-69
2022/09/05 08:33:02;;;;;;;7.40;0.60;;;;;;;;;;5325002;28;20023;-69
2022/09/05 08:35:33;;;;;;;4.03;0.60;;;;;;;;;;5324866;28;20359;-67
2022/09/05 08:38:06;;;;;;;6.95;1.02;;;;;;;;;;5324461;28;20040;-67
2022/09/05 08:40:44;;;;;;;4.47;0.60;;;;;;;;;;5324469;28;20019;-67
2022/09/05 08:43:37;;;;;;;3.60;0.60;;;;;;;;;;5324066;28;20047;-68
2022/09/05 08:46:24;;;;;;;3.90;0.60;;;;;;;;;;5324930;28;20046;-68
2022/09/05 08:49:07;;;;;;;11.38;0.73;;;;;;;;;;5324653;28;20034;-68
2022/09/05 08:51:40;;;;;;;4.72;0.70;;;;;;;;;;5323524;28;20028;-67
2022/09/05 08:54:17;;;;;;;6.78;0.60;;;;;;;;;;5325215;28;20420;-67
2022/09/05 08:57:07;;;;;;;4.40;0.70;;;;;;;;;;5324479;28;20120;-67
2022/09/05 08:59:41;;;;;;;7.47;0.73;;;;;;;;;;5324179;28;20020;-67
2022/09/05 09:02:18;;;;;;;5.97;0.70;;;;;;;;;;5324547;28;20015;-67
2022/09/05 09:05:06;;;;;;;3.28;0.60;;;;;;;;;;5323724;28;20370;-67
2022/09/05 09:07:42;;;;;;;3.85;0.60;;;;;;;;;;5324165;28;20020;-68
2022/09/05 09:10:19;;;;;;;3.63;0.60;;;;;;;;;;5324510;28;20382;-68
2022/09/05 09:13:01;;;;;;;5.13;0.50;;;;;;;;;;5323291;28;20023;-68
2022/09/05 09:15:37;;;;;;;7.82;0.60;;;;;;;;;;5323302;28;20020;-68
2022/09/05 09:18:16;;;;;;;4.93;0.90;;;;;;;;;;5323922;28;20023;-68
2022/09/05 09:20:53;;;;;;;6.55;0.93;;;;;;;;;;5323978;28;20446;-68
2022/09/05 09:23:35;;;;;;;4.70;0.50;;;;;;;;;;5324324;28;20024;-69
2022/09/05 09:26:18;;;;;;;3.63;0.40;;;;;;;;;;5323505;28;20087;-69
2022/09/05 09:28:51;;;;;;;1.85;0.40;;;;;;;;;;5323768;28;20020;-68
2022/09/05 09:31:25;;;;;;;4.25;0.47;;;;;;;;;;5323887;28;20098;-68
2022/09/05 09:34:15;;;;;;;4.93;0.40;;;;;;;;;;5319291;28;20058;-67
2022/09/05 09:37:04;;;;;;;3.15;0.40;;;;;;;;;;5318968;28;20445;-68
2022/09/05 09:39:50;;;;;;;4.00;0.50;;;;;;;;;;5320108;28;20378;-69
2022/09/05 09:42:31;;;;;;;2.88;0.50;;;;;;;;;;5323106;28;20051;-68
2022/09/05 09:45:02;;;;;;;5.80;0.60;;;;;;;;;;5322678;28;20045;-69
2022/09/05 09:47:57;;;;;;;4.00;0.55;;;;;;;;;;5321504;28;20063;-68
2022/09/05 09:50:41;;;;;;;5.15;0.50;;;;;;;;;;5323212;28;20052;-68
2022/09/05 09:53:13;;;;;;;5.93;1.15;;;;;;;;;;5323468;28;20027;-68
2022/09/05 09:55:47;;;;;;;5.28;0.38;;;;;;;;;;5322152;28;20020;-68
2022/09/05 09:58:31;;;;;;;5.30;0.40;;;;;;;;;;5323622;28;20386;-68
2022/09/05 10:01:09;;;;;;;2.05;0.40;;;;;;;;;;5322985;28;20162;-68
2022/09/05 10:03:40;;;;;;;4.60;0.47;;;;;;;;;;5323367;28;20463;-68
2022/09/05 10:06:26;;;;;;;6.20;0.40;;;;;;;;;;5323605;28;20046;-68
2022/09/05 10:09:23;;;;;;;4.13;0.50;;;;;;;;;;5322966;28;20461;-69
2022/09/05 10:12:13;;;;;;;4.00;0.40;;;;;;;;;;5323523;28;20479;-68
2022/09/05 10:14:53;;;;;;;5.53;0.40;;;;;;;;;;5322465;28;20023;-68
2022/09/05 10:17:43;;;;;;;1.42;0.30;;;;;;;;;;5323740;28;20121;-68
2022/09/05 10:20:14;;;;;;;3.20;0.43;;;;;;;;;;5323638;28;20020;-68
2022/09/05 10:22:45;;;;;;;2.88;0.38;;;;;;;;;;5322104;28;20032;-68
2022/09/05 10:25:17;;;;;;;1.73;0.30;;;;;;;;;;5323399;28;20024;-68
2022/09/05 10:28:01;;;;;;;2.20;0.37;;;;;;;;;;5322877;28;20069;-68
2022/09/05 10:30:39;;;;;;;2.50;0.30;;;;;;;;;;5322165;28;20333;-67
2022/09/05 10:33:11;;;;;;;2.83;0.40;;;;;;;;;;5323284;28;20024;-68
2022/09/05 10:35:46;;;;;;;2.22;0.30;;;;;;;;;;5321498;28;20031;-67
2022/09/05 10:38:23;;;;;;;1.88;0.30;;;;;;;;;;5323086;28;20076;-68
2022/09/05 10:40:59;;;;;;;1.75;0.30;;;;;;;;;;5322401;28;20088;-67
2022/09/05 10:43:32;;;;;;;3.53;0.30;;;;;;;;;;5321458;28;20523;-68
2022/09/05 10:46:17;;;;;;;1.80;0.20;;;;;;;;;;5322878;28;20038;-67
2022/09/05 10:48:53;;;;;;;1.60;0.30;;;;;;;;;;5322382;28;20023;-68
2022/09/05 10:51:48;;;;;;;23.10;1.10;;;;;;;;;;5322197;28;20454;-68
2022/09/05 10:54:19;;;;;;;2.28;0.40;;;;;;;;;;5319304;28;20039;-69
2022/09/05 10:57:06;;;;;;;4.95;0.30;;;;;;;;;;5325445;28;20035;-67
2022/09/05 10:59:49;;;;;;;2.08;0.30;;;;;;;;;;5326397;28;20019;-69
2022/09/05 11:02:21;;;;;;;3.63;0.20;;;;;;;;;;5327211;28;20043;-69
2022/09/05 11:04:55;;;;;;;1.65;0.30;;;;;;;;;;5325538;28;20039;-67
2022/09/05 11:07:50;;;;;;;1.88;0.50;;;;;;;;;;5326357;28;20020;-68
2022/09/05 11:10:23;;;;;;;3.20;0.40;;;;;;;;;;5326963;28;20068;-68
2022/09/05 11:13:06;;;;;;;1.80;0.30;;;;;;;;;;5325603;28;20073;-68
2022/09/05 11:15:50;;;;;;;3.13;0.40;;;;;;;;;;5326293;28;20484;-68
2022/09/05 11:18:33;;;;;;;1.85;0.30;;;;;;;;;;5326047;28;20030;-68
2022/09/05 11:21:39;;;;;;;2.63;0.30;;;;;;;;;;5326717;28;20359;-69
2022/09/05 11:24:22;;;;;;;1.92;0.30;;;;;;;;;;5281595;28;20086;-68
2022/09/05 11:26:59;;;;;;;1.83;0.30;;;;;;;;;;5321055;28;20027;-69
2022/09/05 11:29:36;;;;;;;4.22;0.50;;;;;;;;;;5325882;28;20019;-69
2022/09/05 11:32:16;;;;;;;3.13;0.40;;;;;;;;;;5325491;28;20101;-69
2022/09/05 11:34:59;;;;;;;1.85;0.30;;;;;;;;;;5325833;28;20104;-69
2022/09/05 11:37:49;;;;;;;2.40;0.40;;;;;;;;;;5325645;28;20030;-69
2022/09/05 11:40:21;;;;;;;1.50;0.55;;;;;;;;;;5325449;28;20016;-69
2022/09/05 11:43:11;;;;;;;1.35;0.30;;;;;;;;;;5325556;28;20047;-69
2022/09/05 11:45:42;;;;;;;2.45;0.40;;;;;;;;;;5325921;28;20066;-70
2022/09/05 11:48:23;;;;;;;1.67;0.30;;;;;;;;;;5325213;28;20055;-68
2022/09/05 11:51:12;;;;;;;1.38;0.30;;;;;;;;;;5325484;28;20471;-68
2022/09/05 11:54:02;;;;;;;4.68;0.40;;;;;;;;;;5324476;28;20404;-68
2022/09/05 11:56:48;;;;;;;5.72;0.30;;;;;;;;;;5325073;28;20103;-69
2022/09/05 11:59:38;;;;;;;3.72;0.30;;;;;;;;;;5325449;28;20030;-68
2022/09/05 12:02:31;;;;;;;2.28;0.40;;;;;;;;;;5324980;28;20019;-68
2022/09/05 12:05:05;;;;;;;3.17;0.45;;;;;;;;;;5324510;28;20107;-68
2022/09/05 12:07:42;;;;;;;2.60;0.30;;;;;;;;;;5324328;28;20011;-69
2022/09/05 12:10:16;;;;;;;3.58;0.35;;;;;;;;;;5325502;28;20027;-68
2022/09/05 12:12:59;;;;;;;4.43;0.40;;;;;;;;;;5324747;28;20022;-69
2022/09/05 12:15:32;;;;;;;0.90;0.30;;;;;;;;;;5323917;28;20084;-69
2022/09/05 12:18:10;;;;;;;2.47;0.35;;;;;;;;;;5325362;28;20024;-69
2022/09/05 12:20:41;;;;;;;2.17;0.20;;;;;;;;;;5324893;27;20486;-69
2022/09/05 12:23:18;;;;;;;4.20;0.40;;;;;;;;;;5324711;28;20011;-68
2022/09/05 12:26:09;;;;;;;1.55;0.20;;;;;;;;;;5324553;27;20031;-69
2022/09/05 12:28:54;;;;;;;4.00;0.30;;;;;;;;;;5323734;28;20016;-69
2022/09/05 12:31:34;;;;;;;2.47;0.30;;;;;;;;;;5324723;27;20015;-70
2022/09/05 12:34:11;;;;;;;2.75;0.30;;;;;;;;;;5325228;28;20136;-69
2022/09/05 12:36:46;;;;;;;0.95;0.30;;;;;;;;;;5323664;28;20427;-69
2022/09/05 12:39:34;;;;;;;1.58;0.30;;;;;;;;;;5324969;28;20027;-69
2022/09/05 12:42:20;;;;;;;3.92;0.38;;;;;;;;;;5324192;28;20051;-69
2022/09/05 12:45:08;;;;;;;2.97;0.30;;;;;;;;;;5314415;27;20034;-69
2022/09/05 12:47:48;;;;;;;1.88;0.30;;;;;;;;;;5323921;28;20497;-68
2022/09/05 12:50:24;;;;;;;4.72;0.30;;;;;;;;;;5323927;28;20023;-68
2022/09/05 12:53:01;;;;;;;2.92;0.28;;;;;;;;;;5324474;28;20102;-69
2022/09/05 12:55:36;;;;;;;3.80;0.40;;;;;;;;;;5323778;28;20080;-69
2022/09/05 12:58:15;;;;;;;3.50;0.30;;;;;;;;;;5323954;28;20064;-69
2022/09/05 13:00:47;;;;;;;0.90;0.30;;;;;;;;;;5324047;28;20123;-69
2022/09/05 13:03:26;;;;;;;2.55;0.40;;;;;;;;;;5323538;28;20098;-69
2022/09/05 13:06:00;;;;;;;4.07;0.43;;;;;;;;;;5324310;28;20446;-68
2022/09/05 13:08:42;;;;;;;2.47;0.40;;;;;;;;;;5323834;28;20011;-69
2022/09/05 13:11:16;;;;;;;1.38;0.32;;;;;;;;;;5323728;28;20024;-69
2022/09/05 13:13:50;;;;;;;5.07;0.40;;;;;;;;;;5323649;28;20051;-69
2022/09/05 13:16:23;;;;;;;2.15;0.30;;;;;;;;;;5324241;28;20023;-69
2022/09/05 13:19:06;;;;;;;2.28;0.30;;;;;;;;;;5323172;28;20022;-68
2022/09/05 13:21:43;;;;;;;4.13;0.30;;;;;;;;;;5323654;28;20019;-69
2022/09/05 13:24:20;;;;;;;2.35;0.40;;;;;;;;;;5323936;28;20110;-67
2022/09/05 13:26:54;;;;;;;3.63;0.30;;;;;;;;;;5323414;28;20069;-68
2022/09/05 13:29:34;;;;;;;3.97;0.20;;;;;;;;;;5323495;28;20107;-68
2022/09/05 13:32:11;;;;;;;6.45;0.32;;;;;;;;;;5323352;28;20348;-68
2022/09/05 13:34:55;;;;;;;1.35;0.25;;;;;;;;;;5323431;28;20424;-69
2022/09/05 13:37:38;;;;;;;1.02;0.20;;;;;;;;;;5323577;28;20473;-69
2022/09/05 13:40:21;;;;;;;4.63;0.40;;;;;;;;;;5322961;28;20438;-68
2022/09/05 13:43:10;;;;;;;1.42;0.30;;;;;;;;;;5322697;28;20043;-68
2022/09/05 13:46:05;;;;;;;1.33;0.30;;;;;;;;;;5322548;28;20043;-69
2022/09/05 13:48:50;;;;;;;5.07;0.45;;;;;;;;;;5323188;28;20127;-69
2022/09/05 13:51:22;;;;;;;1.92;0.30;;;;;;;;;;5323591;28;20047;-69
2022/09/05 13:54:12;;;;;;;4.00;0.30;;;;;;;;;;5322260;28;20063;-69
2022/09/05 13:56:49;;;;;;;3.03;0.30;;;;;;;;;;5312612;28;20023;-69
2022/09/05 13:59:23;;;;;;;1.52;0.30;;;;;;;;;;5321234;28;20026;-69
2022/09/05 14:02:12;;;;;;;2.03;0.40;;;;;;;;;;5321951;28;20016;-69
2022/09/05 14:04:52;;;;;;;2.45;0.40;;;;;;;;;;5322236;28;20023;-69
2022/09/05 14:07:36;;;;;;;1.98;0.30;;;;;;;;;;5322285;28;20597;-69
2022/09/05 14:10:31;;;;;;;2.75;0.30;;;;;;;;;;5322549;28;20051;-70
2022/09/05 14:13:05;;;;;;;3.70;0.30;;;;;;;;;;5322859;28;20026;-68
2022/09/05 14:15:51;;;;;;;2.05;0.30;;;;;;;;;;5321895;28;20331;-68
2022/09/05 14:18:25;;;;;;;4.00;0.40;;;;;;;;;;5323328;28;20028;-67
2022/09/05 14:21:17;;;;;;;1.73;0.30;;;;;;;;;;5321508;28;20023;-68
2022/09/05 14:23:55;;;;;;;2.03;0.40;;;;;;;;;;5322990;28;20024;-70
2022/09/05 14:26:29;;;;;;;0.93;0.30;;;;;;;;;;5322599;28;20424;-68
2022/09/05 14:29:14;;;;;;;3.80;0.30;;;;;;;;;;5324465;28;20027;-69
2022/09/05 14:31:50;;;;;;;1.63;0.25;;;;;;;;;;5327162;28;20035;-69
2022/09/05 14:34:27;;;;;;;7.20;0.60;;;;;;;;;;5327556;28;20015;-68
2022/09/05 14:37:01;;;;;;;4.70;0.30;;;;;;;;;;5327031;28;20027;-68
2022/09/05 14:39:55;;;;;;;3.63;0.40;;;;;;;;;;5326845;28;20019;-68
2022/09/05 14:42:32;;;;;;;1.90;0.30;;;;;;;;;;5317320;28;20043;-68
2022/09/05 14:45:04;;;;;;;1.80;0.40;;;;;;;;;;5327377;28;20035;-68
2022/09/05 14:47:53;;;;;;;2.70;0.30;;;;;;;;;;5326762;28;20061;-68
2022/09/05 14:50:44;;;;;;;1.83;0.30;;;;;;;;;;5326224;28;20016;-69
2022/09/05 14:53:17;;;;;;;2.47;0.40;;;;;;;;;;5327461;28;20080;-68
2022/09/05 14:55:51;;;;;;;3.00;0.47;;;;;;;;;;5325896;27;20022;-68
2022/09/05 14:58:24;;;;;;;1.40;0.40;;;;;;;;;;5327088;28;20112;-68
2022/09/05 15:01:03;;;;;;;3.10;0.40;;;;;;;;;;5326992;28;20542;-68
2022/09/05 15:03:38;;;;;;;3.03;0.40;;;;;;;;;;5325829;28;20019;-68
2022/09/05 15:06:14;;;;;;;4.05;0.40;;;;;;;;;;5326885;28;20118;-67
2022/09/05 15:08:56;;;;;;;8.07;0.55;;;;;;;;;;5326125;28;20023;-68
2022/09/05 15:11:28;;;;;;;3.65;0.50;;;;;;;;;;5325797;28;20075;-68
2022/09/05 15:14:02;;;;;;;2.38;0.30;;;;;;;;;;5326705;28;20024;-67
2022/09/05 15:16:37;;;;;;;5.68;0.45;;;;;;;;;;5326219;28;20026;-67
2022/09/05 15:19:08;;;;;;;3.80;0.47;;;;;;;;;;5325925;28;20016;-68
2022/09/05 15:21:40;;;;;;;7.13;0.40;;;;;;;;;;5326272;28;20024;-68
2022/09/05 15:24:17;;;;;;;4.63;0.30;;;;;;;;;;5325696;28;20016;-69
2022/09/05 15:26:56;;;;;;;4.47;0.40;;;;;;;;;;5326008;28;20273;-69
2022/09/05 15:29:34;;;;;;;6.28;0.40;;;;;;;;;;5325847;28;20572;-68
2022/09/05 15:32:22;;;;;;;1.80;0.30;;;;;;;;;;5325885;28;20047;-68
2022/09/05 15:34:54;;;;;;;2.30;0.28;;;;;;;;;;5326041;28;20024;-69
2022/09/05 15:37:34;;;;;;;4.70;0.32;;;;;;;;;;5325781;28;20023;-69
2022/09/05 15:40:14;;;;;;;6.07;0.50;;;;;;;;;;5324335;28;20379;-70
2022/09/05 15:42:53;;;;;;;4.00;0.30;;;;;;;;;;5325569;28;20377;-68
2022/09/05 15:45:30;;;;;;;2.88;0.30;;;;;;;;;;5325120;28;20035;-69
2022/09/05 15:48:15;;;;;;;3.50;0.40;;;;;;;;;;5326254;28;20063;-68
2022/09/05 15:50:49;;;;;;;2.60;0.30;;;;;;;;;;5325785;28;20089;-68
2022/09/05 15:53:23;;;;;;;5.75;0.50;;;;;;;;;;5325454;28;20489;-68
2022/09/05 15:56:01;;;;;;;4.00;0.30;;;;;;;;;;5325940;28;20082;-69
2022/09/05 15:58:32;;;;;;;;;;;;;;;;;;5325813;28;20466;-69
2022/09/05 16:01:10;;;;;;;2.25;0.35;;;;;;;;;;5325152;28;19904;-68